Gokbel — TCZY4 — position and weather

sailwx.info

Track history (hours):
 
Tides and Currents Weather Stations Pressure Air Temp Water Temp Dewpoint Dewpoint Depression Visibility Wind Speed Wind Dir Waves Ship Positions

Gokbel

Last reported at 2014-Nov-23 22:05 UTC. Time now 2014-Nov-24 22:31 UTC.
Position N 41°17' E 029°34'.

Length 87 m; draft 3.6 m.

MMSI: 271042598.

Date/timePositionNaut miles runAvg speedWind from/ knotsBaromVisibWave heightAir tempDewpointWater temp
2014-Nov-23 22:05N 41°17' E 029°34'5 8.9
2014-Nov-23 21:34N 41°16' E 029°28'27 6.4
2014-Nov-23 17:19N 40°59' E 028°60'4 4.8
2014-Nov-23 16:33N 40°56' E 029°02'7 6.5
2014-Nov-23 15:34N 40°53' E 029°09'2 1.4
2014-Nov-23 14:29N 40°53' E 029°11'0 0.0
2014-Nov-23 13:29N 40°53' E 029°11'0 0.0
2014-Nov-23 12:29N 40°53' E 029°11'0 0.0
2014-Nov-23 11:29N 40°53' E 029°11'0 0.0
2014-Nov-23 10:29N 40°53' E 029°11'0 0.0
2014-Nov-23 09:29N 40°53' E 029°11'0 0.0
2014-Nov-23 08:29N 40°53' E 029°11'0 0.0
2014-Nov-23 07:29N 40°53' E 029°11'0 0.0
2014-Nov-23 06:29N 40°53' E 029°11'0 0.0
2014-Nov-23 05:29N 40°53' E 029°11'0 0.0
2014-Nov-23 04:17N 40°53' E 029°11'0 0.0
2014-Nov-23 03:23N 40°53' E 029°11'0 0.0
2014-Nov-23 02:29N 40°53' E 029°11'0 0.0
2014-Nov-23 01:29N 40°53' E 029°11'0 0.0
2014-Nov-23 00:29N 40°53' E 029°11'0 0.0
2014-Nov-22 23:23N 40°53' E 029°11'0 0.0
2014-Nov-22 22:29N 40°53' E 029°11'0 0.0
2014-Nov-22 21:23N 40°53' E 029°11'0 0.0
2014-Nov-22 20:29N 40°53' E 029°11'0 0.0
2014-Nov-22 19:29N 40°53' E 029°11'0 0.0
2014-Nov-22 18:29N 40°53' E 029°11'0 0.0
2014-Nov-22 17:23N 40°53' E 029°11'0 0.0
2014-Nov-22 16:29N 40°53' E 029°11'0 0.0
2014-Nov-22 15:29N 40°53' E 029°11'0 0.0
2014-Nov-22 14:29N 40°53' E 029°11'0 0.0
2014-Nov-22 13:17N 40°53' E 029°11'0 0.0
2014-Nov-22 12:16N 40°53' E 029°11'1 1.9
2014-Nov-22 11:33N 40°51' E 029°12'4 3.9
2014-Nov-22 10:33N 40°51' E 029°17'  
2014-Nov-15 05:33N 39°52' E 024°18'5 5.3
2014-Nov-15 04:32N 39°53' E 024°11'6 5.4
2014-Nov-15 03:30N 39°53' E 024°04'  
Track history (hours):
 
Tides and Currents Weather Stations Pressure Air Temp Water Temp Dewpoint Dewpoint Depression Visibility Wind Speed Wind Dir Waves Ship Positions

Gokbel

Last reported at 2014-Nov-23 22:05 UTC. Time now 2014-Nov-24 22:31 UTC.
Position N 41°17' E 029°34'.

Length 87 m; draft 3.6 m.

MMSI: 271042598.

Date/timePositionNaut miles runAvg speedWind from/ knotsBaromVisibWave heightAir tempDewpointWater temp
2014-Nov-23 22:05N 41°17' E 029°34'5 8.9
2014-Nov-23 21:34N 41°16' E 029°28'27 6.4
2014-Nov-23 17:19N 40°59' E 028°60'4 4.8
2014-Nov-23 16:33N 40°56' E 029°02'7 6.5
2014-Nov-23 15:34N 40°53' E 029°09'2 1.4
2014-Nov-23 14:29N 40°53' E 029°11'0 0.0
2014-Nov-23 13:29N 40°53' E 029°11'0 0.0
2014-Nov-23 12:29N 40°53' E 029°11'0 0.0
2014-Nov-23 11:29N 40°53' E 029°11'0 0.0
2014-Nov-23 10:29N 40°53' E 029°11'0 0.0
2014-Nov-23 09:29N 40°53' E 029°11'0 0.0
2014-Nov-23 08:29N 40°53' E 029°11'0 0.0
2014-Nov-23 07:29N 40°53' E 029°11'0 0.0
2014-Nov-23 06:29N 40°53' E 029°11'0 0.0
2014-Nov-23 05:29N 40°53' E 029°11'0 0.0
2014-Nov-23 04:17N 40°53' E 029°11'0 0.0
2014-Nov-23 03:23N 40°53' E 029°11'0 0.0
2014-Nov-23 02:29N 40°53' E 029°11'0 0.0
2014-Nov-23 01:29N 40°53' E 029°11'0 0.0
2014-Nov-23 00:29N 40°53' E 029°11'0 0.0
2014-Nov-22 23:23N 40°53' E 029°11'0 0.0
2014-Nov-22 22:29N 40°53' E 029°11'0 0.0
2014-Nov-22 21:23N 40°53' E 029°11'0 0.0
2014-Nov-22 20:29N 40°53' E 029°11'0 0.0
2014-Nov-22 19:29N 40°53' E 029°11'0 0.0
2014-Nov-22 18:29N 40°53' E 029°11'0 0.0
2014-Nov-22 17:23N 40°53' E 029°11'0 0.0
2014-Nov-22 16:29N 40°53' E 029°11'0 0.0
2014-Nov-22 15:29N 40°53' E 029°11'0 0.0
2014-Nov-22 14:29N 40°53' E 029°11'0 0.0
2014-Nov-22 13:17N 40°53' E 029°11'0 0.0
2014-Nov-22 12:16N 40°53' E 029°11'1 1.9
2014-Nov-22 11:33N 40°51' E 029°12'4 3.9
2014-Nov-22 10:33N 40°51' E 029°17'  
2014-Nov-15 05:33N 39°52' E 024°18'5 5.3
2014-Nov-15 04:32N 39°53' E 024°11'6 5.4
2014-Nov-15 03:30N 39°53' E 024°04'  

Dump ship's entire track history